Time;durP1;ratioP1;P1;durP2;ratioP2;P2;SDS_P1;SDS_P2;PMS_P1;PMS_P2;Temp;Humidity;BMP_temperature;BMP_pressure;BME280_temperature;BME280_humidity;BME280_pressure;Samples;Min_cycle;Max_cycle;Signal;HPM_P1;HPM_P2
2021/10/16 00:00:06;;;;;;;6.03;5.33;;;8.50;1.00;;;;;;5103896;28;20185;-58
2021/10/16 00:02:32;;;;;;;5.03;4.40;;;8.50;1.00;;;;;;5109617;28;20190;-57
2021/10/16 00:04:57;;;;;;;6.67;5.13;;;8.50;1.00;;;;;;5111168;28;20444;-57
2021/10/16 00:07:23;;;;;;;6.20;5.60;;;8.60;1.00;;;;;;5103807;28;20186;-57
2021/10/16 00:09:48;;;;;;;7.50;5.53;;;8.60;1.00;;;;;;5106305;28;20318;-57
2021/10/16 00:12:14;;;;;;;6.57;5.33;;;8.60;1.00;;;;;;5103726;28;20186;-58
2021/10/16 00:14:40;;;;;;;6.57;4.93;;;8.50;1.00;;;;;;5089565;28;20182;-57
2021/10/16 00:17:06;;;;;;;7.17;5.37;;;8.50;1.00;;;;;;5095447;28;20186;-57
2021/10/16 00:19:31;;;;;;;7.27;5.17;;;8.50;1.00;;;;;;5096442;28;20445;-57
2021/10/16 00:21:57;;;;;;;8.23;4.90;;;8.40;1.00;;;;;;5098623;28;20710;-58
2021/10/16 00:24:22;;;;;;;5.47;4.93;;;8.40;1.00;;;;;;5110899;28;20197;-58
2021/10/16 00:26:48;;;;;;;7.50;5.43;;;8.30;1.00;;;;;;5097452;28;20209;-58
2021/10/16 00:29:13;;;;;;;7.77;5.37;;;8.40;1.00;;;;;;5092978;28;20245;-57
2021/10/16 00:31:39;;;;;;;6.57;5.87;;;8.30;1.00;;;;;;5100533;28;20176;-57
2021/10/16 00:34:04;;;;;;;6.10;5.33;;;8.40;1.00;;;;;;5093231;28;20175;-58
2021/10/16 00:36:30;;;;;;;7.73;5.50;;;8.40;1.00;;;;;;5092944;28;20660;-59
2021/10/16 00:38:55;;;;;;;6.70;5.50;;;8.50;1.00;;;;;;5093596;28;20171;-58
2021/10/16 00:41:21;;;;;;;6.90;5.80;;;8.40;1.00;;;;;;5096800;28;20179;-58
2021/10/16 00:43:47;;;;;;;8.03;7.10;;;8.50;1.00;;;;;;5108520;28;20186;-57
2021/10/16 00:46:12;;;;;;;8.43;7.57;;;8.40;1.00;;;;;;5107067;28;20234;-59
2021/10/16 00:48:38;;;;;;;11.50;8.30;;;8.40;1.00;;;;;;5092448;28;20202;-57
2021/10/16 00:51:04;;;;;;;7.83;7.03;;;8.50;1.00;;;;;;5098246;28;20202;-58
2021/10/16 00:53:29;;;;;;;9.70;7.60;;;8.40;1.00;;;;;;5093790;28;20191;-58
2021/10/16 00:55:55;;;;;;;9.80;7.40;;;8.40;1.00;;;;;;5094527;28;20184;-58
2021/10/16 00:58:23;;;;;;;10.80;8.40;;;8.40;1.00;;;;;;5099732;28;20243;-58
2021/10/16 01:00:48;;;;;;;10.80;7.10;;;8.40;1.00;;;;;;5094058;28;20191;-58
2021/10/16 01:03:14;;;;;;;9.57;6.70;;;8.30;1.00;;;;;;5108282;28;20466;-57
2021/10/16 01:05:40;;;;;;;8.23;6.67;;;8.30;1.00;;;;;;5097404;28;20463;-57
2021/10/16 01:08:10;;;;;;;8.30;7.50;;;8.20;1.00;;;;;;5089250;28;20304;-58
2021/10/16 01:10:35;;;;;;;10.67;6.67;;;8.10;1.00;;;;;;5099835;28;20444;-58
2021/10/16 01:13:01;;;;;;;7.07;6.37;;;8.10;1.00;;;;;;5104420;28;20440;-59
2021/10/16 01:15:27;;;;;;;7.70;6.50;;;8.10;1.00;;;;;;5101711;28;20536;-58
2021/10/16 01:17:54;;;;;;;7.77;6.40;;;8.20;1.00;;;;;;5092988;28;20179;-58
2021/10/16 01:20:24;;;;;;;9.10;6.33;;;8.20;1.00;;;;;;5096716;28;20158;-58
2021/10/16 01:22:52;;;;;;;8.37;6.00;;;8.10;1.00;;;;;;5100919;28;20410;-58
2021/10/16 01:25:23;;;;;;;7.87;6.23;;;8.10;1.00;;;;;;5102121;28;20552;-58
2021/10/16 01:27:50;;;;;;;7.80;5.50;;;8.10;1.00;;;;;;5075691;28;20958;-58
2021/10/16 01:30:22;;;;;;;7.33;5.23;;;8.20;1.00;;;;;;5091395;28;20450;-58
2021/10/16 01:32:49;;;;;;;8.20;5.90;;;8.20;1.00;;;;;;5100144;28;20769;-57
2021/10/16 01:35:15;;;;;;;6.90;5.37;;;8.10;1.00;;;;;;5102981;28;22863;-58
2021/10/16 01:37:43;;;;;;;7.97;5.87;;;8.10;1.00;;;;;;5093563;28;20464;-58
2021/10/16 01:40:11;;;;;;;6.83;5.10;;;8.00;1.00;;;;;;5105519;28;20521;-58
2021/10/16 01:42:41;;;;;;;8.80;5.63;;;8.00;1.00;;;;;;5091705;28;21056;-57
2021/10/16 01:45:17;;;;;;;7.67;5.00;;;8.00;1.00;;;;;;5092684;28;20500;-58
2021/10/16 01:47:53;;;;;;;7.97;4.57;;;8.00;1.00;;;;;;5109537;28;20415;-58
2021/10/16 01:50:21;;;;;;;5.83;5.03;;;8.00;1.00;;;;;;5100739;28;20459;-58
2021/10/16 01:52:47;;;;;;;6.80;4.77;;;7.90;1.00;;;;;;5094394;28;20433;-57
2021/10/16 01:55:12;;;;;;;9.63;5.67;;;8.00;1.00;;;;;;5095599;28;20972;-58
2021/10/16 01:57:38;;;;;;;5.67;5.07;;;7.90;1.00;;;;;;5079220;28;20175;-58
2021/10/16 02:00:06;;;;;;;11.63;5.50;;;7.90;1.00;;;;;;5092194;28;20601;-58
2021/10/16 02:02:33;;;;;;;5.67;5.07;;;8.00;1.00;;;;;;5105422;28;20475;-57
2021/10/16 02:04:58;;;;;;;5.60;4.60;;;7.90;1.00;;;;;;5108361;28;20415;-59
2021/10/16 02:07:24;;;;;;;5.67;4.60;;;8.00;1.00;;;;;;5096150;28;20426;-57
2021/10/16 02:09:49;;;;;;;5.97;5.10;;;7.90;1.00;;;;;;5092956;28;20218;-58
2021/10/16 02:12:15;;;;;;;6.43;5.13;;;7.90;1.00;;;;;;5098426;28;20201;-58
2021/10/16 02:14:40;;;;;;;6.53;5.20;;;7.90;1.00;;;;;;5093801;28;20741;-58
2021/10/16 02:17:06;;;;;;;6.00;4.73;;;7.90;1.00;;;;;;5105543;28;20191;-57
2021/10/16 02:19:31;;;;;;;8.03;4.90;;;7.80;1.00;;;;;;5098995;28;20187;-57
2021/10/16 02:21:57;;;;;;;9.13;4.80;;;7.80;1.00;;;;;;5101076;28;20664;-57
2021/10/16 02:24:22;;;;;;;9.00;4.77;;;7.80;1.00;;;;;;5093075;28;20188;-57
2021/10/16 02:26:48;;;;;;;7.93;4.17;;;7.80;1.00;;;;;;5100370;28;20209;-57
2021/10/16 02:29:13;;;;;;;7.13;5.07;;;7.80;1.50;;;;;;5077023;28;20693;-58
2021/10/16 02:31:39;;;;;;;5.93;4.47;;;7.80;4.30;;;;;;5109694;28;20665;-58
2021/10/16 02:34:04;;;;;;;8.60;5.53;;;7.80;2.40;;;;;;5095882;28;20190;-58
2021/10/16 02:36:30;;;;;;;8.70;5.83;;;7.80;5.90;;;;;;5100685;28;20175;-57
2021/10/16 02:38:56;;;;;;;4.80;4.37;;;7.80;6.20;;;;;;5099283;28;20195;-57
2021/10/16 02:41:21;;;;;;;8.20;5.20;;;7.80;5.50;;;;;;5105472;28;20210;-58
2021/10/16 02:43:47;;;;;;;9.27;4.47;;;7.70;7.60;;;;;;5095701;28;20187;-57
2021/10/16 02:46:12;;;;;;;5.23;4.43;;;7.80;6.90;;;;;;5097557;28;20676;-57
2021/10/16 02:48:38;;;;;;;6.77;4.93;;;7.80;4.50;;;;;;5097396;28;20269;-58
2021/10/16 02:51:03;;;;;;;5.70;4.97;;;7.70;5.30;;;;;;5111881;28;20676;-57
2021/10/16 02:53:29;;;;;;;13.53;5.73;;;7.70;4.20;;;;;;5110456;28;20187;-58
2021/10/16 02:55:54;;;;;;;10.40;4.90;;;7.70;4.30;;;;;;5083347;28;20190;-59
2021/10/16 02:58:20;;;;;;;6.20;5.30;;;7.70;3.90;;;;;;5101889;28;20640;-58
2021/10/16 03:00:45;;;;;;;6.43;4.67;;;7.70;2.30;;;;;;5098794;28;20314;-57
2021/10/16 03:03:11;;;;;;;6.20;4.63;;;7.70;1.50;;;;;;5095422;28;20187;-58
2021/10/16 03:05:36;;;;;;;8.33;4.90;;;7.70;3.50;;;;;;5099103;28;20543;-58
2021/10/16 03:08:02;;;;;;;8.80;5.10;;;7.90;2.00;;;;;;5094844;28;20183;-56
2021/10/16 03:10:27;;;;;;;6.83;4.87;;;7.70;1.20;;;;;;5096847;28;20183;-57
2021/10/16 03:12:53;;;;;;;6.10;4.27;;;7.70;1.00;;;;;;5096538;28;20192;-57
2021/10/16 03:15:18;;;;;;;9.97;5.57;;;7.60;1.40;;;;;;5110696;28;20644;-57
2021/10/16 03:17:44;;;;;;;7.20;5.20;;;7.60;2.80;;;;;;5100743;28;20197;-58
2021/10/16 03:20:10;;;;;;;5.73;4.70;;;7.60;5.90;;;;;;5094817;28;20183;-57
2021/10/16 03:22:35;;;;;;;5.87;4.80;;;7.70;4.10;;;;;;5094220;28;20644;-58
2021/10/16 03:25:01;;;;;;;6.90;5.23;;;7.60;1.40;;;;;;5104088;28;20444;-57
2021/10/16 03:27:26;;;;;;;7.77;4.63;;;7.60;1.00;;;;;;5105530;28;20182;-57
2021/10/16 03:29:52;;;;;;;6.07;4.53;;;7.60;1.00;;;;;;5092496;28;20590;-58
2021/10/16 03:32:17;;;;;;;5.77;5.00;;;7.60;1.00;;;;;;5112001;28;20543;-58
2021/10/16 03:34:43;;;;;;;6.43;4.40;;;7.60;1.00;;;;;;5100060;28;20194;-57
2021/10/16 03:37:08;;;;;;;10.83;4.77;;;7.60;1.00;;;;;;5107074;28;20193;-58
2021/10/16 03:39:34;;;;;;;4.80;4.33;;;7.60;1.00;;;;;;5112044;28;20390;-57
2021/10/16 03:41:59;;;;;;;6.10;4.20;;;7.60;1.00;;;;;;5102260;28;20191;-57
2021/10/16 03:44:25;;;;;;;5.33;4.10;;;7.50;1.00;;;;;;5097597;28;20187;-58
2021/10/16 03:46:51;;;;;;;5.83;4.80;;;7.50;1.00;;;;;;5092393;28;20226;-58
2021/10/16 03:49:16;;;;;;;6.73;4.13;;;7.40;1.00;;;;;;5077895;28;20575;-57
2021/10/16 03:51:42;;;;;;;6.53;4.30;;;7.40;1.00;;;;;;5100232;28;20258;-58
2021/10/16 03:54:07;;;;;;;10.53;4.60;;;7.40;1.00;;;;;;5094345;28;20218;-57
2021/10/16 03:56:33;;;;;;;7.20;5.07;;;7.40;1.00;;;;;;5092810;28;20233;-57
2021/10/16 03:58:58;;;;;;;5.37;4.87;;;7.40;1.00;;;;;;5098265;28;20213;-58
2021/10/16 04:01:24;;;;;;;5.63;4.00;;;7.40;1.00;;;;;;5094520;28;20194;-58
2021/10/16 04:03:49;;;;;;;7.47;4.10;;;7.40;1.00;;;;;;5092636;28;20228;-57
2021/10/16 04:06:15;;;;;;;7.03;4.40;;;7.40;1.00;;;;;;5096058;28;20192;-57
2021/10/16 04:08:43;;;;;;;6.73;4.30;;;7.40;1.00;;;;;;5092356;28;20218;-57
2021/10/16 04:11:08;;;;;;;5.23;4.47;;;7.40;1.00;;;;;;5098926;28;20189;-57
2021/10/16 04:13:34;;;;;;;4.63;4.23;;;7.40;1.00;;;;;;5103109;28;20527;-57
2021/10/16 04:15:59;;;;;;;8.93;4.50;;;7.40;1.00;;;;;;5111443;28;20189;-57
2021/10/16 04:18:25;;;;;;;8.10;4.60;;;7.40;1.00;;;;;;5105357;28;20194;-58
2021/10/16 04:20:51;;;;;;;6.80;4.33;;;7.30;1.00;;;;;;5110806;28;20213;-57
2021/10/16 04:23:16;;;;;;;8.87;4.43;;;7.30;1.00;;;;;;5099017;28;20569;-58
2021/10/16 04:25:42;;;;;;;5.83;4.13;;;7.30;1.00;;;;;;5096091;28;20267;-57
2021/10/16 04:28:07;;;;;;;6.77;4.57;;;7.30;1.00;;;;;;5094417;28;20175;-58
2021/10/16 04:30:33;;;;;;;5.93;3.73;;;7.30;1.00;;;;;;5103844;28;20185;-57
2021/10/16 04:32:59;;;;;;;5.10;4.23;;;7.20;1.00;;;;;;5109232;28;20187;-57
2021/10/16 04:35:25;;;;;;;9.83;4.33;;;7.20;1.00;;;;;;5093325;28;20175;-57
2021/10/16 04:37:52;;;;;;;8.50;4.50;;;7.20;1.00;;;;;;5094166;28;20422;-59
2021/10/16 04:40:18;;;;;;;5.23;4.20;;;7.20;1.00;;;;;;5109887;28;20471;-58
2021/10/16 04:42:45;;;;;;;6.07;4.30;;;7.20;1.00;;;;;;5095175;28;20459;-57
2021/10/16 04:45:11;;;;;;;6.93;4.50;;;7.30;1.00;;;;;;5095442;28;20870;-57
2021/10/16 04:47:37;;;;;;;8.80;4.37;;;7.30;1.00;;;;;;5104278;28;20879;-57
2021/10/16 04:50:07;;;;;;;6.10;4.00;;;7.30;1.00;;;;;;5110302;28;20464;-57
2021/10/16 04:52:33;;;;;;;4.90;4.23;;;7.20;1.00;;;;;;5110065;28;20444;-57
2021/10/16 04:54:59;;;;;;;4.93;4.13;;;7.30;1.00;;;;;;5090530;28;21026;-58
2021/10/16 04:57:25;;;;;;;6.77;4.17;;;7.20;1.00;;;;;;5095133;28;20481;-58
2021/10/16 04:59:50;;;;;;;8.40;4.20;;;7.10;1.00;;;;;;5100847;28;20967;-57
2021/10/16 05:02:16;;;;;;;4.57;3.70;;;7.10;1.00;;;;;;5100813;28;20277;-57
2021/10/16 05:04:41;;;;;;;4.37;3.97;;;7.10;1.00;;;;;;5097751;28;20187;-57
2021/10/16 05:07:07;;;;;;;5.57;3.90;;;7.10;1.00;;;;;;5092462;28;20194;-59
2021/10/16 05:09:33;;;;;;;6.20;4.50;;;7.20;1.00;;;;;;5079349;28;20268;-58
2021/10/16 05:11:59;;;;;;;6.37;4.57;;;7.10;1.00;;;;;;5103858;28;20540;-57
2021/10/16 05:14:24;;;;;;;8.27;4.77;;;7.20;1.00;;;;;;5098071;28;20211;-58
2021/10/16 05:16:50;;;;;;;7.40;4.90;;;7.20;1.00;;;;;;5100421;28;20479;-57
2021/10/16 05:19:15;;;;;;;7.73;4.97;;;7.20;1.00;;;;;;5095801;28;20205;-58
2021/10/16 05:21:41;;;;;;;4.50;4.10;;;7.10;1.00;;;;;;5106847;28;20194;-58
2021/10/16 05:24:06;;;;;;;7.80;4.57;;;7.00;1.00;;;;;;5109702;28;20194;-57
2021/10/16 05:26:32;;;;;;;8.23;6.50;;;7.00;1.00;;;;;;5101664;28;20187;-58
2021/10/16 05:28:59;;;;;;;9.73;4.83;;;7.00;1.00;;;;;;5109253;28;20218;-57
2021/10/16 05:31:24;;;;;;;6.07;5.20;;;7.00;1.00;;;;;;5101887;28;20229;-58
2021/10/16 05:33:50;;;;;;;7.33;5.70;;;7.00;1.00;;;;;;5094279;28;20470;-57
2021/10/16 05:36:16;;;;;;;12.37;5.90;;;7.00;1.00;;;;;;5096881;28;20175;-57
2021/10/16 05:38:42;;;;;;;6.40;5.07;;;7.00;1.00;;;;;;5107721;28;20439;-58
2021/10/16 05:41:07;;;;;;;8.00;5.33;;;7.00;1.00;;;;;;5088351;28;20203;-58
2021/10/16 05:43:33;;;;;;;6.83;5.80;;;7.00;1.00;;;;;;5106268;28;20251;-59
2021/10/16 05:45:59;;;;;;;10.67;5.60;;;6.90;1.00;;;;;;5109102;28;20218;-57
2021/10/16 05:48:25;;;;;;;8.30;5.90;;;7.50;1.00;;;;;;5095339;28;20250;-59
2021/10/16 05:50:50;;;;;;;6.30;5.07;;;6.90;1.00;;;;;;5095273;28;20473;-57
2021/10/16 05:53:16;;;;;;;16.30;6.50;;;6.90;1.00;;;;;;5094767;28;20210;-58
2021/10/16 05:55:41;;;;;;;7.60;5.27;;;7.00;1.00;;;;;;5098611;28;20229;-58
2021/10/16 05:58:07;;;;;;;5.77;5.03;;;7.00;1.00;;;;;;5095191;28;20236;-58
2021/10/16 06:00:32;;;;;;;5.50;5.00;;;7.10;1.00;;;;;;5105320;28;20244;-57
2021/10/16 06:02:59;;;;;;;6.17;5.33;;;7.10;1.00;;;;;;5092212;28;20171;-58
2021/10/16 06:05:25;;;;;;;8.90;4.70;;;7.20;1.00;;;;;;5098381;28;20707;-57
2021/10/16 06:07:50;;;;;;;5.77;4.70;;;7.20;1.00;;;;;;5097159;28;20700;-58
2021/10/16 06:10:16;;;;;;;7.13;5.50;;;7.30;1.00;;;;;;5107480;28;20202;-58
2021/10/16 06:12:41;;;;;;;6.30;5.10;;;7.40;1.00;;;;;;5102287;28;20183;-58
2021/10/16 06:15:07;;;;;;;6.73;4.90;;;7.60;1.00;;;;;;5109718;28;20678;-57
2021/10/16 06:17:33;;;;;;;6.57;5.80;;;7.70;1.00;;;;;;5101998;28;20228;-58
2021/10/16 06:19:58;;;;;;;6.23;5.10;;;7.80;1.00;;;;;;5104753;28;20441;-58
2021/10/16 06:22:24;;;;;;;5.73;5.10;;;8.00;1.00;;;;;;5093826;28;20643;-58
2021/10/16 06:24:51;;;;;;;8.70;5.60;;;8.10;1.00;;;;;;5096680;28;20198;-58
2021/10/16 06:27:17;;;;;;;7.27;4.90;;;8.20;1.00;;;;;;5103896;28;20226;-57
2021/10/16 06:29:42;;;;;;;7.17;4.87;;;8.30;1.00;;;;;;5100187;28;20551;-56
2021/10/16 06:32:08;;;;;;;5.10;4.57;;;8.40;1.00;;;;;;5102406;28;20412;-57
2021/10/16 06:34:33;;;;;;;7.77;5.60;;;8.40;1.00;;;;;;5094769;28;20179;-58
2021/10/16 06:36:59;;;;;;;9.23;6.00;;;8.50;1.00;;;;;;5098245;28;20231;-59
2021/10/16 06:39:25;;;;;;;7.33;4.80;;;8.60;1.00;;;;;;5099454;28;20197;-58
2021/10/16 06:41:50;;;;;;;5.60;4.83;;;8.70;1.00;;;;;;5108247;28;20183;-58
2021/10/16 06:44:16;;;;;;;8.40;5.70;;;8.70;1.00;;;;;;5098889;28;20178;-59
2021/10/16 06:46:41;;;;;;;6.63;5.47;;;8.80;1.00;;;;;;5104500;28;20219;-58
2021/10/16 06:49:07;;;;;;;6.57;5.27;;;8.80;1.00;;;;;;5087279;28;20198;-58
2021/10/16 06:51:33;;;;;;;7.37;5.17;;;8.80;1.00;;;;;;5102329;28;20183;-58
2021/10/16 06:53:59;;;;;;;8.73;4.97;;;8.80;1.00;;;;;;5096820;28;20190;-58
2021/10/16 06:56:26;;;;;;;8.30;5.23;;;8.80;1.00;;;;;;5097387;28;20429;-59
2021/10/16 06:58:51;;;;;;;6.40;5.00;;;8.90;1.00;;;;;;5101149;28;20249;-58
2021/10/16 07:01:17;;;;;;;6.17;5.03;;;9.00;1.00;;;;;;5082763;28;20449;-58
2021/10/16 07:03:42;;;;;;;10.40;5.03;;;9.00;1.00;;;;;;5098522;28;20236;-58
2021/10/16 07:06:10;;;;;;;8.63;5.73;;;9.00;1.00;;;;;;5096666;28;20207;-58
2021/10/16 07:08:35;;;;;;;8.00;5.37;;;9.30;1.00;;;;;;5110246;28;20202;-58
2021/10/16 07:11:01;;;;;;;7.97;5.77;;;9.40;1.00;;;;;;5108062;28;20959;-58
2021/10/16 07:13:26;;;;;;;6.23;5.63;;;9.50;1.00;;;;;;5099309;28;20183;-59
2021/10/16 07:15:52;;;;;;;8.30;6.07;;;9.70;1.00;;;;;;5104281;28;20183;-58
2021/10/16 07:18:18;;;;;;;9.10;5.17;;;9.80;1.00;;;;;;5097983;28;20187;-58
2021/10/16 07:20:43;;;;;;;7.93;5.40;;;9.80;1.00;;;;;;5104970;28;20653;-58
2021/10/16 07:23:09;;;;;;;8.00;4.77;;;9.90;1.00;;;;;;5095287;28;20191;-58
2021/10/16 07:25:35;;;;;;;8.30;5.87;;;9.90;1.00;;;;;;5100700;28;20269;-58
2021/10/16 07:28:00;;;;;;;10.63;5.30;;;9.90;1.00;;;;;;5094926;28;20191;-58
2021/10/16 07:30:26;;;;;;;6.73;5.70;;;9.90;1.00;;;;;;5101880;28;20183;-58
2021/10/16 07:32:52;;;;;;;8.17;5.90;;;9.80;1.00;;;;;;5104993;28;20186;-58
2021/10/16 07:35:18;;;;;;;11.90;6.53;;;9.90;1.00;;;;;;5107930;28;20932;-58
2021/10/16 07:37:44;;;;;;;7.57;5.90;;;9.80;1.00;;;;;;5103128;28;20174;-58
2021/10/16 07:40:10;;;;;;;9.17;5.87;;;9.90;1.00;;;;;;5109288;28;20180;-58
2021/10/16 07:42:36;;;;;;;7.80;5.43;;;10.20;1.00;;;;;;5103136;28;20483;-58
2021/10/16 07:45:02;;;;;;;12.60;6.67;;;10.30;1.00;;;;;;5094051;28;20439;-58
2021/10/16 07:47:27;;;;;;;9.57;5.57;;;10.40;1.00;;;;;;5104760;28;20662;-57
2021/10/16 07:49:54;;;;;;;6.87;5.30;;;10.50;1.00;;;;;;5103976;28;20434;-58
2021/10/16 07:52:20;;;;;;;7.93;5.70;;;10.50;1.00;;;;;;5105652;28;20190;-58
2021/10/16 07:54:46;;;;;;;11.30;6.00;;;9.50;1.00;;;;;;5099278;28;21682;-58
2021/10/16 07:57:11;;;;;;;14.43;6.40;;;10.80;1.00;;;;;;5101366;28;20517;-58
2021/10/16 07:59:37;;;;;;;9.17;6.33;;;10.90;1.00;;;;;;5109393;28;20216;-58
2021/10/16 08:02:02;;;;;;;9.60;7.00;;;11.20;1.00;;;;;;5110921;28;20190;-58
2021/10/16 08:04:28;;;;;;;8.40;5.40;;;11.20;1.00;;;;;;5108501;28;20659;-57
2021/10/16 08:06:54;;;;;;;7.20;5.40;;;11.20;1.00;;;;;;5107850;28;20182;-58
2021/10/16 08:09:19;;;;;;;9.07;5.37;;;11.30;1.00;;;;;;5098605;28;20206;-58
2021/10/16 08:11:45;;;;;;;7.70;6.10;;;11.20;1.00;;;;;;5098691;28;20184;-59
2021/10/16 08:14:10;;;;;;;7.90;5.97;;;11.10;1.00;;;;;;5101494;28;20897;-59
2021/10/16 08:16:36;;;;;;;8.10;5.80;;;11.10;1.00;;;;;;5110915;28;20174;-58
2021/10/16 08:19:01;;;;;;;8.30;6.30;;;11.00;1.00;;;;;;5106057;28;20521;-58
2021/10/16 08:21:27;;;;;;;11.77;7.17;;;11.00;1.00;;;;;;5099817;28;20183;-59
2021/10/16 08:23:53;;;;;;;9.30;6.27;;;11.10;1.00;;;;;;5105777;28;20187;-59
2021/10/16 08:26:18;;;;;;;11.27;6.53;;;11.10;1.00;;;;;;5108656;28;20212;-58
2021/10/16 08:28:44;;;;;;;8.40;6.40;;;11.30;1.00;;;;;;5107412;28;20210;-58
2021/10/16 08:31:09;;;;;;;10.23;5.83;;;11.60;1.00;;;;;;5103023;28;20183;-58
2021/10/16 08:33:37;;;;;;;11.80;6.20;;;11.90;1.00;;;;;;5097158;28;20176;-59
2021/10/16 08:36:04;;;;;;;8.90;6.77;;;12.30;1.00;;;;;;5108723;28;20554;-59
2021/10/16 08:38:30;;;;;;;11.30;6.43;;;12.40;1.00;;;;;;5106131;28;20780;-60
2021/10/16 08:40:55;;;;;;;11.03;6.33;;;12.30;1.00;;;;;;5109264;28;20441;-58
2021/10/16 08:43:21;;;;;;;11.93;7.27;;;12.20;1.00;;;;;;5106620;28;20179;-59
2021/10/16 08:45:47;;;;;;;16.80;8.37;;;12.20;1.00;;;;;;5101515;28;20230;-58
2021/10/16 08:48:16;;;;;;;11.97;7.70;;;12.30;1.00;;;;;;5108494;28;20182;-58
2021/10/16 08:50:47;;;;;;;13.80;7.10;;;12.00;1.00;;;;;;5104530;28;20626;-58
2021/10/16 08:53:13;;;;;;;12.63;7.87;;;12.00;1.00;;;;;;5109124;28;20465;-59
2021/10/16 08:55:41;;;;;;;10.13;7.07;;;12.00;1.00;;;;;;5109032;28;20929;-58
2021/10/16 08:58:07;;;;;;;10.90;6.73;;;12.00;1.00;;;;;;5104403;28;20952;-58
2021/10/16 09:00:41;;;;;;;12.47;6.70;;;12.20;1.00;;;;;;5110272;28;20506;-60
2021/10/16 09:03:17;;;;;;;14.30;7.20;;;12.00;1.00;;;;;;5110938;28;20543;-59
2021/10/16 09:05:59;;;;;;;12.30;6.97;;;12.00;1.00;;;;;;5100673;28;20503;-59
2021/10/16 09:08:46;;;;;;;15.40;7.20;;;12.10;1.00;;;;;;5089868;28;20452;-59
2021/10/16 09:11:24;;;;;;;14.57;8.13;;;12.50;1.00;;;;;;5096058;28;20498;-59
2021/10/16 09:13:54;;;;;;;11.50;6.17;;;12.60;1.00;;;;;;5095720;28;20698;-59
2021/10/16 09:16:22;;;;;;;11.87;6.77;;;12.80;1.00;;;;;;5093447;28;20440;-59
2021/10/16 09:18:52;;;;;;;14.20;7.40;;;12.90;1.00;;;;;;5092331;28;20691;-58
2021/10/16 09:21:20;;;;;;;12.60;6.93;;;13.10;1.00;;;;;;5109533;28;20941;-58
2021/10/16 09:23:45;;;;;;;8.93;6.20;;;13.40;1.00;;;;;;5110245;28;20939;-59
2021/10/16 09:26:12;;;;;;;22.37;7.33;;;13.70;1.00;;;;;;5109781;28;20440;-59
2021/10/16 09:28:38;;;;;;;8.60;5.50;;;14.00;1.00;;;;;;5093581;28;20195;-59
2021/10/16 09:31:13;;;;;;;12.50;5.23;;;13.90;1.00;;;;;;5096905;28;20503;-58
2021/10/16 09:33:46;;;;;;;11.60;6.30;;;13.90;1.00;;;;;;5096153;28;20421;-59
2021/10/16 09:36:22;;;;;;;11.37;6.10;;;14.00;1.00;;;;;;5098824;28;20766;-58
2021/10/16 09:38:48;;;;;;;10.87;4.77;;;14.10;1.00;;;;;;5094452;28;20458;-59
2021/10/16 09:41:24;;;;;;;12.13;5.23;;;14.40;1.00;;;;;;5098923;28;20498;-58
2021/10/16 09:43:49;;;;;;;13.07;6.23;;;14.50;1.00;;;;;;5108976;28;20452;-59
2021/10/16 09:46:17;;;;;;;10.80;5.90;;;14.80;1.00;;;;;;5109287;28;20445;-58
2021/10/16 09:48:45;;;;;;;10.50;5.20;;;14.80;1.00;;;;;;5099748;28;20214;-57
2021/10/16 09:51:11;;;;;;;10.80;5.13;;;14.80;1.00;;;;;;5086886;28;20434;-59
2021/10/16 09:53:37;;;;;;;12.87;5.40;;;15.00;1.00;;;;;;5106825;28;21027;-58
2021/10/16 09:56:03;;;;;;;10.37;5.47;;;15.30;1.00;;;;;;5105416;28;20590;-59
2021/10/16 09:58:32;;;;;;;9.30;5.53;;;15.50;1.00;;;;;;5112976;28;20269;-58
2021/10/16 10:00:58;;;;;;;12.47;5.30;;;15.40;1.00;;;;;;5109894;28;20183;-58
2021/10/16 10:03:26;;;;;;;9.43;5.97;;;15.20;1.00;;;;;;5110989;28;20446;-58
2021/10/16 10:05:53;;;;;;;12.23;5.00;;;14.80;1.00;;;;;;5114054;28;20440;-58
2021/10/16 10:08:20;;;;;;;9.03;3.90;;;14.70;1.00;;;;;;5107623;28;20523;-59
2021/10/16 10:10:49;;;;;;;9.87;3.33;;;14.30;1.00;;;;;;5111926;28;20477;-58
2021/10/16 10:13:15;;;;;;;10.50;4.40;;;14.30;1.00;;;;;;5096227;28;20467;-58
2021/10/16 10:15:41;;;;;;;10.10;4.60;;;14.10;1.00;;;;;;5098456;28;20946;-59
2021/10/16 10:20:54;;;;;;;9.73;5.30;;;14.40;1.00;;;;;;5099666;28;20448;-58
2021/10/16 10:23:25;;;;;;;14.50;5.90;;;14.60;1.00;;;;;;5099511;28;20411;-58
2021/10/16 10:26:24;;;;;;;12.03;5.33;;;14.70;1.00;;;;;;5097891;28;20437;-57
2021/10/16 10:28:51;;;;;;;10.53;5.43;;;14.90;1.00;;;;;;5095249;28;20518;-58
2021/10/16 10:31:45;;;;;;;10.93;5.50;;;15.00;1.00;;;;;;5083359;28;20702;-58
2021/10/16 10:34:17;;;;;;;7.77;4.80;;;15.30;1.00;;;;;;5100525;28;20427;-59
2021/10/16 10:36:46;;;;;;;9.23;4.03;;;15.20;1.00;;;;;;5103266;28;20446;-58
2021/10/16 10:39:32;;;;;;;7.00;3.60;;;15.20;1.00;;;;;;5097548;28;20926;-58
2021/10/16 10:42:02;;;;;;;6.87;3.60;;;14.90;1.00;;;;;;5099185;28;20442;-58
2021/10/16 10:44:38;;;;;;;6.10;3.17;;;14.70;1.00;;;;;;5093137;28;20959;-58
2021/10/16 10:47:23;;;;;;;6.67;2.77;;;14.60;1.00;;;;;;5095226;28;20492;-58
2021/10/16 10:49:49;;;;;;;5.57;2.70;;;14.50;1.00;;;;;;5097609;28;20480;-58
2021/10/16 10:52:15;;;;;;;7.63;3.67;;;14.40;1.00;;;;;;5092952;28;20802;-58
2021/10/16 10:55:01;;;;;;;11.90;4.80;;;14.20;1.00;;;;;;5078661;28;20471;-57
2021/10/16 10:57:50;;;;;;;7.73;4.67;;;14.00;1.00;;;;;;5094129;28;20172;-59
2021/10/16 11:00:38;;;;;;;8.27;3.70;;;14.00;1.00;;;;;;5093707;28;20408;-59
2021/10/16 11:03:29;;;;;;;8.07;3.97;;;14.00;1.00;;;;;;5079312;28;20440;-58
2021/10/16 11:05:56;;;;;;;10.80;4.53;;;14.10;1.00;;;;;;5093732;28;20435;-59
2021/10/16 11:08:23;;;;;;;11.93;5.13;;;14.00;1.00;;;;;;5093055;28;20415;-59
2021/10/16 11:10:56;;;;;;;8.13;4.10;;;14.00;1.00;;;;;;5092887;28;20408;-60
2021/10/16 11:13:22;;;;;;;8.47;4.40;;;14.00;1.00;;;;;;5113319;28;20432;-59
2021/10/16 11:15:58;;;;;;;14.93;5.20;;;14.10;1.00;;;;;;5108465;28;20951;-60
2021/10/16 11:18:24;;;;;;;13.87;4.90;;;14.00;1.00;;;;;;5092695;28;20179;-60
2021/10/16 11:20:49;;;;;;;6.30;4.77;;;14.00;1.00;;;;;;5093695;28;20412;-59
2021/10/16 11:23:23;;;;;;;5.60;4.20;;;13.90;1.00;;;;;;5093001;28;20312;-59
2021/10/16 11:26:04;;;;;;;9.40;5.40;;;14.00;1.00;;;;;;5094652;28;20179;-59
2021/10/16 11:28:31;;;;;;;7.70;4.50;;;13.90;1.00;;;;;;5093024;28;20428;-59
2021/10/16 11:30:58;;;;;;;8.70;4.87;;;13.80;1.00;;;;;;5097100;28;20579;-60
2021/10/16 11:33:29;;;;;;;7.87;3.90;;;14.10;1.00;;;;;;5092794;28;20409;-59
2021/10/16 11:36:00;;;;;;;9.20;4.13;;;14.00;1.00;;;;;;5096376;28;20469;-59
2021/10/16 11:38:28;;;;;;;8.97;4.10;;;14.10;1.00;;;;;;5092952;28;20409;-59
2021/10/16 11:40:55;;;;;;;7.50;3.77;;;14.10;1.00;;;;;;5093273;28;20486;-58
2021/10/16 11:43:23;;;;;;;8.70;3.80;;;14.20;1.00;;;;;;5111017;28;20480;-59
2021/10/16 11:45:51;;;;;;;4.70;3.30;;;14.30;1.00;;;;;;5111860;28;20971;-60
2021/10/16 11:48:19;;;;;;;10.30;4.53;;;14.40;1.00;;;;;;5102557;28;20441;-59
2021/10/16 11:50:47;;;;;;;5.47;4.07;;;14.40;1.00;;;;;;5096854;28;20417;-59
2021/10/16 11:53:33;;;;;;;7.00;4.00;;;14.40;1.00;;;;;;5112233;28;20433;-59
2021/10/16 11:56:08;;;;;;;7.57;3.80;;;14.50;1.00;;;;;;5110213;28;20447;-59
2021/10/16 11:58:34;;;;;;;5.60;3.73;;;14.50;1.00;;;;;;5096784;28;20418;-60
2021/10/16 12:01:02;;;;;;;7.80;3.50;;;14.70;1.00;;;;;;5091554;28;20931;-60
2021/10/16 12:03:41;;;;;;;10.57;4.90;;;14.90;1.00;;;;;;5092000;28;20444;-60
2021/10/16 12:06:13;;;;;;;11.73;4.33;;;15.00;1.00;;;;;;5091459;28;20411;-60
2021/10/16 12:08:48;;;;;;;8.30;3.60;;;14.90;1.00;;;;;;5092653;28;20960;-60
2021/10/16 12:11:21;;;;;;;9.80;4.17;;;15.00;1.00;;;;;;5092199;28;20458;-59
2021/10/16 12:14:05;;;;;;;5.90;3.43;;;15.20;1.00;;;;;;5091696;28;20506;-59
2021/10/16 12:16:39;;;;;;;11.73;4.20;;;14.90;1.00;;;;;;5092046;28;20441;-59
2021/10/16 12:19:16;;;;;;;11.77;3.67;;;14.80;1.00;;;;;;5092067;28;20956;-58
2021/10/16 12:21:54;;;;;;;9.40;3.57;;;14.80;1.00;;;;;;5092111;28;20481;-59
2021/10/16 12:24:24;;;;;;;8.30;4.23;;;14.80;1.00;;;;;;5091729;28;20469;-59
2021/10/16 12:27:02;;;;;;;10.50;4.00;;;14.80;1.00;;;;;;5098545;28;20439;-59
2021/10/16 12:29:31;;;;;;;5.80;3.53;;;14.90;1.00;;;;;;5091200;28;20468;-58
2021/10/16 12:31:57;;;;;;;8.87;3.67;;;14.90;1.00;;;;;;5077268;28;20506;-59
2021/10/16 12:34:24;;;;;;;16.43;3.30;;;14.80;1.00;;;;;;5091102;28;20430;-58
2021/10/16 12:36:55;;;;;;;5.93;2.67;;;14.80;1.00;;;;;;5096570;28;20438;-59
2021/10/16 12:39:29;;;;;;;7.00;3.33;;;15.00;1.00;;;;;;5091600;28;20983;-59
2021/10/16 12:41:55;;;;;;;8.20;3.30;;;15.30;1.00;;;;;;5096250;28;20423;-61
2021/10/16 12:44:25;;;;;;;6.23;3.40;;;15.60;1.00;;;;;;5095760;28;20434;-59
2021/10/16 12:47:14;;;;;;;7.13;3.17;;;16.00;1.00;;;;;;5091277;28;20473;-59
2021/10/16 12:49:48;;;;;;;5.13;3.33;;;16.50;1.00;;;;;;5091812;28;21105;-60
2021/10/16 12:52:44;;;;;;;6.00;3.30;;;16.80;1.00;;;;;;5090592;28;20418;-58
2021/10/16 12:55:11;;;;;;;9.90;3.33;;;16.90;1.00;;;;;;5071323;28;20451;-59
2021/10/16 12:57:37;;;;;;;8.70;3.13;;;16.70;1.00;;;;;;5090612;28;20435;-58
2021/10/16 13:00:05;;;;;;;8.60;3.57;;;16.20;1.00;;;;;;5091272;28;20175;-58
2021/10/16 13:02:31;;;;;;;7.50;3.80;;;15.60;1.00;;;;;;5090522;28;20901;-59
2021/10/16 13:04:57;;;;;;;7.80;3.70;;;15.40;1.00;;;;;;5102502;28;20497;-59